Time;durP1;ratioP1;P1;durP2;ratioP2;P2;SDS_P1;SDS_P2;PMS_P1;PMS_P2;Temp;Humidity;BMP_temperature;BMP_pressure;BME280_temperature;BME280_humidity;BME280_pressure;Samples;Min_cycle;Max_cycle;Signal;HPM_P1;HPM_P2
2022/12/08 00:00:51;;;;;;;;;;;9.20;61.90;;;;;;5043791;28;19996;-90
2022/12/08 00:03:17;;;;;;;;;;;9.20;61.90;;;;;;5032679;28;19995;-87
2022/12/08 00:11:12;;;;;;;;;;;9.10;61.90;;;;;;5046863;28;20371;-86
2022/12/08 00:13:40;;;;;;;;;;;9.00;62.00;;;;;;5045985;28;19921;-89
2022/12/08 00:16:06;;;;;;;;;;;9.00;61.90;;;;;;5055758;28;19917;-90
2022/12/08 00:18:32;;;;;;;;;;;9.10;62.20;;;;;;5059915;28;19909;-88
2022/12/08 00:21:01;;;;;;;;;;;9.00;62.20;;;;;;5050176;28;19917;-90
2022/12/08 00:23:27;;;;;;;;;;;9.00;62.10;;;;;;5049470;28;19913;-89
2022/12/08 00:25:52;;;;;;;;;;;9.00;62.20;;;;;;5040178;28;20023;-90
2022/12/08 00:28:18;;;;;;;;;;;9.00;62.20;;;;;;5033602;28;20326;-87
2022/12/08 00:30:43;;;;;;;;;;;9.00;62.30;;;;;;5048146;28;19921;-87
2022/12/08 00:33:12;;;;;;;;;;;9.00;62.20;;;;;;5045812;28;19921;-87
2022/12/08 00:35:38;;;;;;;;;;;9.00;62.20;;;;;;5037752;28;19921;-88
2022/12/08 00:38:03;;;;;;;;;;;9.10;62.10;;;;;;5030589;28;19990;-91
2022/12/08 00:40:29;;;;;;;;;;;9.00;62.30;;;;;;5052366;28;19917;-91
2022/12/08 00:42:56;;;;;;;;;;;9.00;62.00;;;;;;5050768;28;19909;-91
2022/12/08 00:45:22;;;;;;;;;;;9.00;62.00;;;;;;5036113;28;19917;-89
2022/12/08 00:47:48;;;;;;;;;;;8.90;61.80;;;;;;5033235;28;19909;-91
2022/12/08 00:50:14;;;;;;;;;;;8.90;61.80;;;;;;5044162;28;19939;-89
2022/12/08 00:52:40;;;;;;;;;;;8.90;61.70;;;;;;5030365;28;19909;-88
2022/12/08 00:55:06;;;;;;;;;;;8.80;61.60;;;;;;5043421;28;20315;-88
2022/12/08 00:57:31;;;;;;;;;;;8.80;61.60;;;;;;5049839;28;20003;-91
2022/12/08 00:59:57;;;;;;;;;;;8.70;61.50;;;;;;5050008;28;20393;-89
2022/12/08 01:02:23;;;;;;;;;;;8.70;61.50;;;;;;5030605;28;20352;-91
2022/12/08 01:04:49;;;;;;;;;;;8.70;61.60;;;;;;5046775;28;19909;-88
2022/12/08 01:07:15;;;;;;;;;;;8.70;61.70;;;;;;5051020;28;20054;-88
2022/12/08 01:09:40;;;;;;;;;;;8.70;61.90;;;;;;5050595;28;19909;-90
2022/12/08 01:12:06;;;;;;;;;;;8.70;62.10;;;;;;5041000;28;19943;-89
2022/12/08 01:14:32;;;;;;;;;;;8.70;62.30;;;;;;5032937;28;20331;-89
2022/12/08 01:17:01;;;;;;;;;;;8.80;62.30;;;;;;5030574;28;19972;-88
2022/12/08 01:19:27;;;;;;;;;;;8.70;62.10;;;;;;5031193;28;19917;-90
2022/12/08 01:21:55;;;;;;;;;;;8.80;62.30;;;;;;5037421;28;19927;-87
2022/12/08 01:24:21;;;;;;;;;;;8.80;62.40;;;;;;5043809;28;19912;-90
2022/12/08 01:26:47;;;;;;;;;;;8.80;62.30;;;;;;5039965;28;19999;-88
2022/12/08 01:29:13;;;;;;;;;;;8.80;62.40;;;;;;5042394;28;20295;-87
2022/12/08 01:31:38;;;;;;;;;;;8.90;62.80;;;;;;5030094;28;19917;-88
2022/12/08 01:34:04;;;;;;;;;;;8.90;62.70;;;;;;5041701;28;19987;-87
2022/12/08 01:36:31;;;;;;;;;;;9.00;62.80;;;;;;5046107;28;19924;-90
2022/12/08 01:38:58;;;;;;;;;;;9.00;62.80;;;;;;5042974;28;19967;-87
2022/12/08 01:41:25;;;;;;;;;;;9.10;62.80;;;;;;5041100;28;20012;-87
2022/12/08 01:43:57;;;;;;;;;;;9.20;62.80;;;;;;5040701;28;19913;-87
2022/12/08 01:46:23;;;;;;;;;;;9.30;62.80;;;;;;5037993;28;19939;-90
2022/12/08 01:48:50;;;;;;;;;;;9.30;62.80;;;;;;5043027;28;20318;-88
2022/12/08 01:51:16;;;;;;;;;;;9.40;62.90;;;;;;5044387;28;19917;-91
2022/12/08 01:53:42;;;;;;;;;;;9.40;62.90;;;;;;5046630;28;20003;-91
2022/12/08 01:56:10;;;;;;;;;;;9.50;62.90;;;;;;5042581;28;19917;-91
2022/12/08 01:58:41;;;;;;;;;;;9.50;62.80;;;;;;5044771;28;19917;-90
2022/12/08 02:01:07;;;;;;;;;;;9.60;62.70;;;;;;5051298;28;20355;-88
2022/12/08 02:03:41;;;;;;;;;;;9.60;62.80;;;;;;5040636;28;20382;-88
2022/12/08 02:06:07;;;;;;;;;;;9.70;62.90;;;;;;5036542;28;19987;-88
2022/12/08 02:08:35;;;;;;;;;;;9.70;62.80;;;;;;5048230;28;19967;-89
2022/12/08 02:11:00;;;;;;;;;;;9.70;62.70;;;;;;5042667;28;19928;-87
2022/12/08 02:13:26;;;;;;;;;;;9.80;62.70;;;;;;5065763;28;20411;-87
2022/12/08 02:15:52;;;;;;;;;;;9.80;62.50;;;;;;5043395;28;19924;-91
2022/12/08 02:18:26;;;;;;;;;;;9.80;62.50;;;;;;5040145;28;19909;-88
2022/12/08 02:20:55;;;;;;;;;;;9.90;62.50;;;;;;5050216;28;19967;-88
2022/12/08 02:23:40;;;;;;;;;;;9.90;62.50;;;;;;5049037;28;20352;-91
2022/12/08 02:26:27;;;;;;;;;;;9.90;62.40;;;;;;5036722;28;20269;-89
2022/12/08 02:28:52;;;;;;;;;;;9.90;62.60;;;;;;5036551;28;20048;-88
2022/12/08 02:31:24;;;;;;;;;;;10.00;62.60;;;;;;5047783;28;19999;-91
2022/12/08 02:34:09;;;;;;;;;;;10.00;62.50;;;;;;5054281;28;19960;-90
2022/12/08 02:36:37;;;;;;;;;;;10.00;62.30;;;;;;5055109;28;19921;-90
2022/12/08 02:39:06;;;;;;;;;;;9.90;62.30;;;;;;5053387;28;19943;-88
2022/12/08 02:41:45;;;;;;;;;;;9.90;62.30;;;;;;5053721;28;19971;-89
2022/12/08 02:44:24;;;;;;;;;;;9.90;62.30;;;;;;5052842;28;19909;-91
2022/12/08 02:46:58;;;;;;;;;;;9.80;62.40;;;;;;5042438;28;20023;-91
2022/12/08 02:49:31;;;;;;;;;;;9.90;62.30;;;;;;5052579;28;20350;-88
2022/12/08 02:52:07;;;;;;;;;;;9.90;62.40;;;;;;5057082;28;20318;-92
2022/12/08 02:54:34;;;;;;;;;;;9.80;62.40;;;;;;5052696;28;20053;-88
2022/12/08 02:57:15;;;;;;;;;;;9.80;62.50;;;;;;5052290;28;19927;-87
2022/12/08 02:59:50;;;;;;;;;;;9.80;62.60;;;;;;5056252;28;19909;-91
2022/12/08 03:02:21;;;;;;;;;;;9.80;62.60;;;;;;5037429;28;19971;-88
2022/12/08 03:05:00;;;;;;;;;;;9.80;62.50;;;;;;5053691;28;19916;-89
2022/12/08 03:07:30;;;;;;;;;;;9.80;62.50;;;;;;5052809;28;20261;-91
2022/12/08 03:09:56;;;;;;;;;;;9.80;62.40;;;;;;5053489;28;20381;-89
2022/12/08 03:12:22;;;;;;;;;;;9.80;62.50;;;;;;5052558;28;20585;-90
2022/12/08 03:14:50;;;;;;;;;;;9.80;62.40;;;;;;5052053;28;19963;-88
2022/12/08 03:17:17;;;;;;;;;;;9.80;62.40;;;;;;5054589;28;19913;-88
2022/12/08 03:19:44;;;;;;;;;;;9.80;62.20;;;;;;5040733;28;19921;-89
2022/12/08 03:22:10;;;;;;;;;;;9.80;62.00;;;;;;5036698;28;19914;-88
2022/12/08 03:24:37;;;;;;;;;;;9.70;61.90;;;;;;5043620;28;19935;-90
2022/12/08 03:27:06;;;;;;;;;;;9.60;61.80;;;;;;5033617;28;19917;-89
2022/12/08 03:29:32;;;;;;;;;;;9.60;61.80;;;;;;5050388;28;19909;-90
2022/12/08 03:32:07;;;;;;;;;;;9.60;62.10;;;;;;5053538;28;19916;-87
2022/12/08 03:34:33;;;;;;;;;;;9.60;62.00;;;;;;5053204;28;19921;-90
2022/12/08 03:37:00;;;;;;;;;;;9.60;62.00;;;;;;5042290;28;20335;-89
2022/12/08 03:39:25;;;;;;;;;;;9.60;62.10;;;;;;5033847;28;19921;-89
2022/12/08 03:41:51;;;;;;;;;;;9.60;62.20;;;;;;5052941;28;19951;-90
2022/12/08 03:44:17;;;;;;;;;;;9.60;62.10;;;;;;5051353;28;19917;-91
2022/12/08 03:46:43;;;;;;;;;;;9.70;62.20;;;;;;5047377;28;20029;-88
2022/12/08 03:49:08;;;;;;;;;;;9.60;62.30;;;;;;5044615;28;19955;-89
2022/12/08 03:51:35;;;;;;;;;;;9.60;62.30;;;;;;5053430;28;19921;-92
2022/12/08 03:54:01;;;;;;;;;;;9.60;62.30;;;;;;5046685;28;20391;-87
2022/12/08 03:56:31;;;;;;;;;;;9.60;62.20;;;;;;5051512;28;19917;-88
2022/12/08 03:58:57;;;;;;;;;;;9.60;62.20;;;;;;5051553;28;19978;-90
2022/12/08 04:01:23;;;;;;;;;;;9.60;62.30;;;;;;5062137;28;20371;-90
2022/12/08 04:03:48;;;;;;;;;;;9.60;62.40;;;;;;5070910;28;20006;-89
2022/12/08 04:06:14;;;;;;;;;;;9.60;62.40;;;;;;5056015;28;19921;-91
2022/12/08 04:08:40;;;;;;;;;;;9.60;62.50;;;;;;5051642;28;19999;-89
2022/12/08 04:11:06;;;;;;;;;;;9.60;62.50;;;;;;5051286;28;19921;-86
2022/12/08 04:13:35;;;;;;;;;;;9.70;62.50;;;;;;5051693;28;20264;-90
2022/12/08 04:16:01;;;;;;;;;;;9.60;62.60;;;;;;5051248;28;19917;-86
2022/12/08 04:18:27;;;;;;;;;;;9.70;62.70;;;;;;5051554;28;20693;-88
2022/12/08 04:20:53;;;;;;;;;;;9.70;62.70;;;;;;5053267;28;19921;-88
2022/12/08 04:23:18;;;;;;;;;;;9.70;62.60;;;;;;5046077;28;19909;-89
2022/12/08 04:25:46;;;;;;;;;;;9.60;62.60;;;;;;5040295;28;19928;-91
2022/12/08 04:28:12;;;;;;;;;;;9.60;62.70;;;;;;5038890;28;19913;-89
2022/12/08 04:30:38;;;;;;;;;;;9.60;62.80;;;;;;5048884;28;20418;-91
2022/12/08 04:33:04;;;;;;;;;;;9.70;62.80;;;;;;5045518;28;20299;-87
2022/12/08 04:35:30;;;;;;;;;;;9.70;63.00;;;;;;5051865;28;19917;-87
2022/12/08 04:37:58;;;;;;;;;;;9.70;62.90;;;;;;5050507;28;19924;-89
2022/12/08 04:40:23;;;;;;;;;;;9.70;63.00;;;;;;5030910;28;20518;-87
2022/12/08 04:42:49;;;;;;;;;;;9.70;63.00;;;;;;5034248;28;20379;-89
2022/12/08 04:45:15;;;;;;;;;;;9.70;62.90;;;;;;5034308;28;19924;-89
2022/12/08 04:47:41;;;;;;;;;;;9.70;63.00;;;;;;5032741;28;19963;-87
2022/12/08 04:50:09;;;;;;;;;;;9.70;63.10;;;;;;5033187;28;19991;-90
2022/12/08 04:52:35;;;;;;;;;;;9.80;63.00;;;;;;5051716;28;19913;-88
2022/12/08 04:55:01;;;;;;;;;;;9.70;63.00;;;;;;5050234;28;19925;-86
2022/12/08 04:57:26;;;;;;;;;;;9.80;63.00;;;;;;5051428;28;20399;-87
2022/12/08 04:59:52;;;;;;;;;;;9.70;63.10;;;;;;5051871;28;19916;-88
2022/12/08 05:02:18;;;;;;;;;;;9.80;63.20;;;;;;5045785;28;19959;-91
2022/12/08 05:04:43;;;;;;;;;;;9.70;63.00;;;;;;5031284;28;19958;-90
2022/12/08 05:07:09;;;;;;;;;;;9.70;63.00;;;;;;5030494;28;20403;-91
2022/12/08 05:09:37;;;;;;;;;;;9.80;63.20;;;;;;5030371;28;20016;-88
2022/12/08 05:12:02;;;;;;;;;;;9.70;63.20;;;;;;5041925;28;19932;-89
2022/12/08 05:14:28;;;;;;;;;;;9.80;63.30;;;;;;5040397;28;19925;-90
2022/12/08 05:16:54;;;;;;;;;;;9.80;63.20;;;;;;5045044;28;19912;-91
2022/12/08 05:19:19;;;;;;;;;;;9.80;63.20;;;;;;5038861;28;19913;-89
2022/12/08 05:21:45;;;;;;;;;;;9.80;63.30;;;;;;5050009;28;20293;-89
2022/12/08 05:24:11;;;;;;;;;;;9.80;63.20;;;;;;5049411;28;19913;-87
2022/12/08 05:26:36;;;;;;;;;;;9.80;63.20;;;;;;5049756;28;19967;-87
2022/12/08 05:29:02;;;;;;;;;;;9.80;63.20;;;;;;5050303;28;20398;-89
2022/12/08 05:31:27;;;;;;;;;;;9.80;63.20;;;;;;5038210;28;20622;-90
2022/12/08 05:33:53;;;;;;;;;;;9.80;63.20;;;;;;5031665;28;19929;-87
2022/12/08 05:36:20;;;;;;;;;;;9.80;63.20;;;;;;5043600;28;20286;-88
2022/12/08 05:38:46;;;;;;;;;;;9.80;63.20;;;;;;5035668;28;19980;-88
2022/12/08 05:41:15;;;;;;;;;;;9.80;63.00;;;;;;5039431;28;19917;-91
2022/12/08 05:43:41;;;;;;;;;;;9.80;63.00;;;;;;5040501;28;19913;-89
2022/12/08 05:46:07;;;;;;;;;;;9.80;63.00;;;;;;5042155;28;19917;-90
2022/12/08 05:48:33;;;;;;;;;;;9.70;62.80;;;;;;5041728;28;19913;-86
2022/12/08 05:51:02;;;;;;;;;;;9.70;62.90;;;;;;5043112;28;19931;-91
2022/12/08 05:53:27;;;;;;;;;;;9.70;62.80;;;;;;5032058;28;19921;-87
2022/12/08 05:55:53;;;;;;;;;;;9.70;63.00;;;;;;5034968;28;20533;-91
2022/12/08 05:58:22;;;;;;;;;;;9.70;63.10;;;;;;5038839;28;19917;-91
2022/12/08 06:00:48;;;;;;;;;;;9.70;63.10;;;;;;5040562;28;20011;-90
2022/12/08 06:03:15;;;;;;;;;;;9.70;63.00;;;;;;5032703;28;20376;-89
2022/12/08 06:05:41;;;;;;;;;;;9.70;63.10;;;;;;5043985;28;19917;-89
2022/12/08 06:08:09;;;;;;;;;;;9.70;62.90;;;;;;5037529;28;19913;-87
2022/12/08 06:10:36;;;;;;;;;;;9.60;62.90;;;;;;5036752;28;19936;-87
2022/12/08 06:13:02;;;;;;;;;;;9.60;62.80;;;;;;5045335;28;20437;-90
2022/12/08 06:15:27;;;;;;;;;;;9.50;62.80;;;;;;5050276;28;19917;-89
2022/12/08 06:17:53;;;;;;;;;;;9.60;63.00;;;;;;5029906;28;19917;-91
2022/12/08 06:20:19;;;;;;;;;;;9.60;63.00;;;;;;5034925;28;20448;-91
2022/12/08 06:22:44;;;;;;;;;;;9.70;63.10;;;;;;5045720;28;19920;-91
2022/12/08 06:25:10;;;;;;;;;;;9.70;62.90;;;;;;5035302;28;19925;-89
2022/12/08 06:27:36;;;;;;;;;;;9.60;62.90;;;;;;5037422;28;19920;-87
2022/12/08 06:30:02;;;;;;;;;;;9.60;62.90;;;;;;5040314;28;19917;-89
2022/12/08 06:32:27;;;;;;;;;;;9.60;63.00;;;;;;5050212;28;19952;-90
2022/12/08 06:34:53;;;;;;;;;;;9.60;63.10;;;;;;5049092;28;19976;-87
2022/12/08 06:37:19;;;;;;;;;;;9.70;63.10;;;;;;5051457;28;20039;-87
2022/12/08 06:39:44;;;;;;;;;;;9.70;63.10;;;;;;5053235;28;19920;-88
2022/12/08 06:44:54;;;;;;;;;;;9.70;63.20;;;;;;5046319;28;19951;-90
2022/12/08 06:47:20;;;;;;;;;;;9.70;63.10;;;;;;5054548;28;19909;-88
2022/12/08 06:49:46;;;;;;;;;;;9.70;63.20;;;;;;5055545;28;19963;-91
2022/12/08 06:52:11;;;;;;;;;;;9.70;63.30;;;;;;5054456;28;19908;-87
2022/12/08 06:54:37;;;;;;;;;;;9.70;63.20;;;;;;5053368;28;19965;-87
2022/12/08 06:57:03;;;;;;;;;;;9.70;63.10;;;;;;5053874;28;19982;-90
2022/12/08 06:59:29;;;;;;;;;;;9.70;63.10;;;;;;5054028;28;20363;-90
2022/12/08 07:01:54;;;;;;;;;;;9.70;63.10;;;;;;5047689;28;19913;-90
2022/12/08 07:04:20;;;;;;;;;;;9.70;63.20;;;;;;5043397;28;19913;-89
2022/12/08 07:06:46;;;;;;;;;;;9.70;63.20;;;;;;5033415;28;19921;-86
2022/12/08 07:09:11;;;;;;;;;;;9.70;63.20;;;;;;5032237;28;19914;-88
2022/12/08 07:11:37;;;;;;;;;;;9.70;63.20;;;;;;5033278;28;19920;-90
2022/12/08 07:14:03;;;;;;;;;;;9.80;63.20;;;;;;5033768;28;20292;-90
2022/12/08 07:16:28;;;;;;;;;;;9.80;63.20;;;;;;5032752;28;19920;-89
2022/12/08 07:18:54;;;;;;;;;;;9.70;63.30;;;;;;5032162;28;20358;-88
2022/12/08 07:21:20;;;;;;;;;;;9.80;63.30;;;;;;5033278;28;19922;-91
2022/12/08 07:23:46;;;;;;;;;;;9.80;63.30;;;;;;5033997;28;19913;-90
2022/12/08 07:26:12;;;;;;;;;;;9.80;63.30;;;;;;5033336;28;19967;-89
2022/12/08 07:28:41;;;;;;;;;;;9.80;63.30;;;;;;5031941;28;19913;-87
2022/12/08 07:31:08;;;;;;;;;;;9.80;63.20;;;;;;5034637;28;19921;-90
2022/12/08 07:33:34;;;;;;;;;;;9.80;63.30;;;;;;5036880;28;20291;-86
2022/12/08 07:36:01;;;;;;;;;;;9.80;63.40;;;;;;5051793;28;19921;-86
2022/12/08 07:38:27;;;;;;;;;;;9.80;63.20;;;;;;5051637;28;19923;-87
2022/12/08 07:40:53;;;;;;;;;;;9.80;63.20;;;;;;5038611;28;19921;-87
2022/12/08 07:43:19;;;;;;;;;;;9.80;63.20;;;;;;5049363;28;19920;-87
2022/12/08 07:45:44;;;;;;;;;;;9.80;63.00;;;;;;5038202;28;19917;-87
2022/12/08 07:48:10;;;;;;;;;;;9.80;63.00;;;;;;5031303;28;19979;-89
2022/12/08 07:50:36;;;;;;;;;;;9.80;63.00;;;;;;5032787;28;19917;-88
2022/12/08 07:53:01;;;;;;;;;;;9.80;63.10;;;;;;5032588;28;19951;-86
2022/12/08 07:55:27;;;;;;;;;;;9.80;63.20;;;;;;5031501;28;19997;-90
2022/12/08 07:57:53;;;;;;;;;;;9.80;63.20;;;;;;5031756;28;20355;-91
2022/12/08 08:00:18;;;;;;;;;;;9.80;63.10;;;;;;5033995;28;20265;-90
2022/12/08 08:02:44;;;;;;;;;;;9.90;63.10;;;;;;5031646;28;20069;-86
2022/12/08 08:05:11;;;;;;;;;;;9.90;63.10;;;;;;5031708;28;20020;-90
2022/12/08 08:07:40;;;;;;;;;;;9.80;63.10;;;;;;5033148;28;19910;-89
2022/12/08 08:10:06;;;;;;;;;;;9.80;63.10;;;;;;5031253;28;19917;-89
2022/12/08 08:12:32;;;;;;;;;;;9.90;63.10;;;;;;5035339;28;19916;-90
2022/12/08 08:14:58;;;;;;;;;;;9.90;63.20;;;;;;5048180;28;20335;-88
2022/12/08 08:17:24;;;;;;;;;;;9.90;63.30;;;;;;5040447;28;19917;-88
2022/12/08 08:19:49;;;;;;;;;;;9.90;63.20;;;;;;5032934;28;19920;-86
2022/12/08 08:22:15;;;;;;;;;;;10.00;63.30;;;;;;5032010;28;19963;-88
2022/12/08 08:24:40;;;;;;;;;;;10.00;63.30;;;;;;5032784;28;19913;-87
2022/12/08 08:27:06;;;;;;;;;;;10.00;63.30;;;;;;5033945;28;19917;-88
2022/12/08 08:29:31;;;;;;;;;;;10.00;63.40;;;;;;5035106;28;19920;-90
2022/12/08 08:31:57;;;;;;;;;;;10.00;63.30;;;;;;5046226;28;20019;-88
2022/12/08 08:34:23;;;;;;;;;;;10.00;63.40;;;;;;5044250;28;19931;-89
2022/12/08 08:36:49;;;;;;;;;;;10.10;63.30;;;;;;5027262;28;19921;-90
2022/12/08 08:39:14;;;;;;;;;;;10.10;63.30;;;;;;5026407;28;20007;-90
2022/12/08 08:41:40;;;;;;;;;;;10.10;63.20;;;;;;5027821;28;20395;-87
2022/12/08 08:44:06;;;;;;;;;;;10.10;63.20;;;;;;5026531;28;19921;-90
2022/12/08 08:46:32;;;;;;;;;;;10.10;63.20;;;;;;5038605;28;19917;-90
2022/12/08 08:49:00;;;;;;;;;;;10.20;63.20;;;;;;5026752;28;19928;-87
2022/12/08 08:51:33;;;;;;;;;;;10.10;63.10;;;;;;5027798;28;20353;-90
2022/12/08 08:53:58;;;;;;;;;;;10.20;63.20;;;;;;5029111;28;19925;-88
2022/12/08 08:56:24;;;;;;;;;;;10.20;63.30;;;;;;5027692;28;19917;-89
2022/12/08 08:58:51;;;;;;;;;;;10.20;63.20;;;;;;5043621;28;19928;-87
2022/12/08 09:01:17;;;;;;;;;;;10.20;63.40;;;;;;5049371;28;19969;-87
2022/12/08 09:03:44;;;;;;;;;;;10.30;63.30;;;;;;5027979;28;19944;-89
2022/12/08 09:06:09;;;;;;;;;;;10.30;63.20;;;;;;5029623;28;19960;-91
2022/12/08 09:08:35;;;;;;;;;;;10.30;63.30;;;;;;5036003;28;20403;-86
2022/12/08 09:13:36;;;;;;;;;;;10.30;63.20;;;;;;4850165;26;20028;-87
2022/12/08 09:16:02;;;;;;;;;;;10.30;63.30;;;;;;5013390;28;20518;-88
2022/12/08 09:18:28;;;;;;;;;;;10.40;63.30;;;;;;5023818;28;19917;-89
2022/12/08 09:20:54;;;;;;;;;;;10.40;63.20;;;;;;5026557;28;19924;-89
2022/12/08 09:23:19;;;;;;;;;;;10.50;63.20;;;;;;5022521;28;19921;-90
2022/12/08 09:25:45;;;;;;;;;;;10.50;63.20;;;;;;5027412;28;19936;-89
2022/12/08 09:28:11;;;;;;;;;;;10.50;63.20;;;;;;5023647;28;19918;-88
2022/12/08 09:30:37;;;;;;;;;;;10.50;63.20;;;;;;5029326;28;20382;-88
2022/12/08 09:33:02;;;;;;;;;;;10.50;63.10;;;;;;5037932;28;19925;-87
2022/12/08 09:35:28;;;;;;;;;;;10.50;63.10;;;;;;5026565;28;20326;-89
2022/12/08 09:37:54;;;;;;;;;;;10.50;63.10;;;;;;5027687;28;19921;-90
2022/12/08 09:40:21;;;;;;;;;;;10.50;63.20;;;;;;5025717;28;19924;-89
2022/12/08 09:43:07;;;;;;;;;;;10.60;63.30;;;;;;5036135;28;19917;-87
2022/12/08 09:45:34;;;;;;;;;;;10.60;63.20;;;;;;5034138;28;20333;-86
2022/12/08 09:48:08;;;;;;;;;;;10.60;63.30;;;;;;5030558;28;20695;-86
2022/12/08 09:50:37;;;;;;;;;;;10.60;63.10;;;;;;5045940;28;19917;-90
2022/12/08 09:53:24;;;;;;;;;;;10.70;63.20;;;;;;5015457;28;20354;-90
2022/12/08 09:55:51;;;;;;;;;;;10.70;63.30;;;;;;5032919;28;19928;-87
2022/12/08 09:58:35;;;;;;;;;;;10.70;63.50;;;;;;5026826;28;19929;-91
2022/12/08 10:01:01;;;;;;;;;;;10.80;63.30;;;;;;5046919;28;19920;-88
2022/12/08 10:03:28;;;;;;;;;;;10.80;63.30;;;;;;5036959;28;19976;-88
2022/12/08 10:06:08;;;;;;;;;;;10.80;63.20;;;;;;5024531;28;19921;-90
2022/12/08 10:08:53;;;;;;;;;;;10.90;63.20;;;;;;5020770;28;20443;-91
2022/12/08 10:11:24;;;;;;;;;;;10.90;63.20;;;;;;5033935;28;20299;-87
2022/12/08 10:13:50;;;;;;;;;;;11.00;63.30;;;;;;5037124;28;19935;-88
2022/12/08 10:16:25;;;;;;;;;;;11.00;63.30;;;;;;5026928;28;19917;-88
2022/12/08 10:18:54;;;;;;;;;;;11.10;63.20;;;;;;5030821;28;19921;-87
2022/12/08 10:21:24;;;;;;;;;;;11.20;63.20;;;;;;5039054;28;20353;-87
2022/12/08 10:23:52;;;;;;;;;;;11.20;63.30;;;;;;5035100;28;19921;-90
2022/12/08 10:26:19;;;;;;;;;;;11.20;63.20;;;;;;5039385;28;20536;-89
2022/12/08 10:28:45;;;;;;;;;;;11.30;63.10;;;;;;5027225;28;19921;-87
2022/12/08 10:31:18;;;;;;;;;;;11.30;63.20;;;;;;5039168;28;19916;-92
2022/12/08 10:33:45;;;;;;;;;;;11.30;63.10;;;;;;5036828;28;19976;-89
2022/12/08 10:36:11;;;;;;;;;;;11.30;62.90;;;;;;5044853;28;19917;-89
2022/12/08 10:38:37;;;;;;;;;;;11.30;62.70;;;;;;5029816;28;19921;-88
2022/12/08 10:41:06;;;;;;;;;;;11.30;62.60;;;;;;5038065;28;20085;-89
2022/12/08 10:43:32;;;;;;;;;;;11.30;62.70;;;;;;5039289;28;19928;-87
2022/12/08 10:46:11;;;;;;;;;;;11.20;62.90;;;;;;5037178;28;19978;-89
2022/12/08 10:48:45;;;;;;;;;;;11.20;62.70;;;;;;5027703;28;20371;-90
2022/12/08 10:51:20;;;;;;;;;;;11.20;62.60;;;;;;5033781;28;19924;-88
2022/12/08 10:53:46;;;;;;;;;;;11.10;62.30;;;;;;5032229;28;19929;-87
2022/12/08 10:56:14;;;;;;;;;;;11.00;61.80;;;;;;5037347;28;19917;-91
2022/12/08 10:58:41;;;;;;;;;;;11.00;61.90;;;;;;5043689;28;20427;-89
2022/12/08 11:01:15;;;;;;;;;;;10.80;62.00;;;;;;5031438;28;19944;-86
2022/12/08 11:03:50;;;;;;;;;;;10.70;61.90;;;;;;5027842;28;19921;-90
2022/12/08 11:06:32;;;;;;;;;;;10.70;62.10;;;;;;5040430;28;20392;-87
2022/12/08 11:09:20;;;;;;;;;;;10.70;62.20;;;;;;5030960;28;19921;-88
2022/12/08 11:11:48;;;;;;;;;;;10.60;62.00;;;;;;5037899;28;19924;-90
2022/12/08 11:14:15;;;;;;;;;;;10.50;62.40;;;;;;5033335;28;19933;-87
2022/12/08 11:16:41;;;;;;;;;;;10.50;62.70;;;;;;5043914;28;19924;-89
2022/12/08 11:19:13;;;;;;;;;;;10.50;62.70;;;;;;5027364;28;19929;-91
2022/12/08 11:21:38;;;;;;;;;;;10.50;62.90;;;;;;5025912;28;19968;-87
2022/12/08 11:24:24;;;;;;;;;;;10.60;62.90;;;;;;5035172;28;20058;-90
2022/12/08 11:27:01;;;;;;;;;;;10.60;63.10;;;;;;5046379;28;20005;-88
2022/12/08 11:29:35;;;;;;;;;;;10.60;63.10;;;;;;5027640;28;19995;-87
2022/12/08 11:32:11;;;;;;;;;;;10.70;63.00;;;;;;5042708;28;20299;-89
2022/12/08 11:34:40;;;;;;;;;;;10.70;63.10;;;;;;5019871;28;19971;-89
2022/12/08 11:37:06;;;;;;;;;;;10.80;62.90;;;;;;5044335;28;19979;-87
2022/12/08 11:39:34;;;;;;;;;;;10.80;62.90;;;;;;5027780;28;19924;-87
2022/12/08 11:42:01;;;;;;;;;;;10.80;62.90;;;;;;5033356;28;20002;-90
2022/12/08 11:44:36;;;;;;;;;;;10.90;63.10;;;;;;5019600;28;20300;-89
2022/12/08 11:47:07;;;;;;;;;;;11.00;63.30;;;;;;5008425;28;19918;-89
2022/12/08 11:49:37;;;;;;;;;;;11.20;63.50;;;;;;5027455;28;19917;-89
2022/12/08 11:52:18;;;;;;;;;;;11.30;63.50;;;;;;5031409;28;19921;-89
2022/12/08 11:54:46;;;;;;;;;;;11.50;63.40;;;;;;5021417;28;20027;-87
2022/12/08 11:57:15;;;;;;;;;;;11.60;63.20;;;;;;5035545;28;19916;-88
2022/12/08 11:59:45;;;;;;;;;;;11.70;63.10;;;;;;5028527;28;19917;-88
2022/12/08 12:02:15;;;;;;;;;;;11.70;63.00;;;;;;5040052;28;19917;-90
2022/12/08 12:05:00;;;;;;;;;;;11.90;63.00;;;;;;5018662;28;20257;-88
2022/12/08 12:07:37;;;;;;;;;;;11.90;62.70;;;;;;5040137;28;20008;-90
2022/12/08 12:10:22;;;;;;;;;;;12.00;62.90;;;;;;5029020;28;20309;-91
2022/12/08 12:12:56;;;;;;;;;;;12.00;63.00;;;;;;5052183;28;19921;-88
2022/12/08 12:15:31;;;;;;;;;;;12.10;62.80;;;;;;5025332;28;20439;-90
2022/12/08 12:18:01;;;;;;;;;;;12.20;62.90;;;;;;5033417;28;19924;-89
2022/12/08 12:20:45;;;;;;;;;;;12.20;62.60;;;;;;5033058;28;19921;-87
2022/12/08 12:23:20;;;;;;;;;;;12.20;62.60;;;;;;5030712;28;19917;-90
2022/12/08 12:25:56;;;;;;;;;;;12.20;62.50;;;;;;5030551;28;19921;-89
2022/12/08 12:28:23;;;;;;;;;;;12.20;62.50;;;;;;5027997;28;20300;-90
2022/12/08 12:30:52;;;;;;;;;;;12.20;62.50;;;;;;5034033;28;19921;-89
2022/12/08 12:33:19;;;;;;;;;;;12.30;62.60;;;;;;5042377;28;20313;-92
2022/12/08 12:35:46;;;;;;;;;;;12.30;62.20;;;;;;5035763;28;20541;-90
2022/12/08 12:41:14;;;;;;;;;;;12.20;62.20;;;;;;5029412;28;20027;-90
2022/12/08 12:43:59;;;;;;;;;;;12.20;62.30;;;;;;5030243;28;19917;-89
2022/12/08 12:46:25;;;;;;;;;;;12.20;62.10;;;;;;5042214;28;20267;-90
2022/12/08 12:48:51;;;;;;;;;;;12.20;61.90;;;;;;5027708;28;19963;-89
2022/12/08 12:51:43;;;;;;;;;;;12.10;62.00;;;;;;5036711;28;20385;-88
2022/12/08 12:54:25;;;;;;;;;;;12.10;61.90;;;;;;5023400;28;20500;-88
2022/12/08 12:56:55;;;;;;;;;;;12.00;62.00;;;;;;5056062;28;19928;-92
2022/12/08 12:59:41;;;;;;;;;;;12.00;62.20;;;;;;5034636;28;19917;-91
2022/12/08 13:02:23;;;;;;;;;;;12.00;62.00;;;;;;5031362;28;19921;-88
2022/12/08 13:05:07;;;;;;;;;;;11.90;62.20;;;;;;5019985;28;20407;-90
2022/12/08 13:07:35;;;;;;;;;;;11.90;62.20;;;;;;5037029;28;19921;-91
2022/12/08 13:10:10;;;;;;;;;;;11.90;62.10;;;;;;5031962;28;19947;-90
2022/12/08 13:12:36;;;;;;;;;;;11.90;62.10;;;;;;5039641;28;19932;-88
2022/12/08 13:15:03;;;;;;;;;;;11.90;62.00;;;;;;5039467;28;19928;-89
2022/12/08 13:17:30;;;;;;;;;;;11.90;62.00;;;;;;5035148;28;19959;-91
2022/12/08 13:19:57;;;;;;;;;;;11.90;61.80;;;;;;5025547;28;19917;-90
2022/12/08 13:22:41;;;;;;;;;;;11.80;61.80;;;;;;5038720;28;20152;-87
2022/12/08 13:25:27;;;;;;;;;;;11.80;61.90;;;;;;5041488;28;20295;-86
2022/12/08 13:27:53;;;;;;;;;;;11.80;61.80;;;;;;5022631;28;20061;-90
2022/12/08 13:30:37;;;;;;;;;;;11.80;61.60;;;;;;5031671;28;20372;-88
2022/12/08 13:33:04;;;;;;;;;;;11.70;61.60;;;;;;5031673;28;19921;-88
2022/12/08 13:35:30;;;;;;;;;;;11.70;61.50;;;;;;5022479;28;19928;-89
2022/12/08 13:37:58;;;;;;;;;;;11.60;61.60;;;;;;5033396;28;19917;-89
2022/12/08 13:40:26;;;;;;;;;;;11.60;61.80;;;;;;5025114;28;19937;-90
2022/12/08 13:42:52;;;;;;;;;;;11.60;61.80;;;;;;5040727;28;19919;-87
2022/12/08 13:45:20;;;;;;;;;;;11.60;61.80;;;;;;5023505;28;19979;-89
2022/12/08 13:47:50;;;;;;;;;;;11.50;61.70;;;;;;5034589;28;20360;-89
2022/12/08 13:50:21;;;;;;;;;;;11.50;61.50;;;;;;5045631;28;19921;-86
2022/12/08 13:52:49;;;;;;;;;;;11.50;61.70;;;;;;5038743;28;20070;-88
2022/12/08 13:55:18;;;;;;;;;;;11.40;61.70;;;;;;5029411;28;19942;-88
2022/12/08 13:57:49;;;;;;;;;;;11.30;61.50;;;;;;5033541;28;19924;-88
2022/12/08 14:00:16;;;;;;;;;;;11.30;61.60;;;;;;5024966;28;19928;-91
2022/12/08 14:02:43;;;;;;;;;;;11.30;61.50;;;;;;5039098;28;19956;-89
2022/12/08 14:05:08;;;;;;;;;;;11.20;61.30;;;;;;5025806;28;20328;-90
2022/12/08 14:07:34;;;;;;;;;;;11.10;61.40;;;;;;5031435;28;20403;-86
2022/12/08 14:10:02;;;;;;;;;;;11.10;61.30;;;;;;5022421;28;19926;-87
2022/12/08 14:12:29;;;;;;;;;;;11.00;61.40;;;;;;5023646;28;19921;-90
2022/12/08 14:15:03;;;;;;;;;;;11.00;61.50;;;;;;5040342;28;20024;-90
2022/12/08 14:17:28;;;;;;;;;;;11.00;61.60;;;;;;5041232;28;19917;-88
2022/12/08 14:19:55;;;;;;;;;;;10.90;61.70;;;;;;5028220;28;19924;-91
2022/12/08 14:22:21;;;;;;;;;;;10.90;61.70;;;;;;5041426;28;19939;-88
2022/12/08 14:24:47;;;;;;;;;;;10.90;61.60;;;;;;5024463;28;19917;-90
2022/12/08 14:27:16;;;;;;;;;;;10.80;61.60;;;;;;5035224;28;19917;-88
2022/12/08 14:29:43;;;;;;;;;;;10.80;61.50;;;;;;5031471;28;20379;-91
2022/12/08 14:32:18;;;;;;;;;;;10.80;61.40;;;;;;5040071;28;20440;-88
2022/12/08 14:34:44;;;;;;;;;;;10.70;61.40;;;;;;5024785;28;19929;-87
2022/12/08 14:37:11;;;;;;;;;;;10.70;61.40;;;;;;5028270;28;19924;-88
2022/12/08 14:39:36;;;;;;;;;;;10.70;61.30;;;;;;5022054;28;19924;-88
2022/12/08 14:42:04;;;;;;;;;;;10.60;61.30;;;;;;5039445;28;19921;-91
2022/12/08 14:44:30;;;;;;;;;;;10.60;61.20;;;;;;5022047;28;20376;-89